Share

Rome, OR

12:49 AM MDT on April 25, 2014 (GMT -0600)
Mountain Home Air Force Base (KMUO) Elev 2995 ft | 43.04 °N, 115.87 °W | Change Station

Current weather conditions updated 51 minutes ago

Mostly Cloudy
Mostly Cloudy
51 °F
Feels Like 51 °F
N
4
Wind Variable Wind from ESE
Sunrise 6:52 AM
Sunset 8:43 PM
Moon Waning Crescent

Today is forecast to be nearly the same temperature as yesterday.

Pressure 29.82 in
Visibility 10.0 miles
Clouds Scattered Clouds 8500 ft
Mostly Cloudy 11000 ft
Dew Point 40 °F
Humidity 65%
Rainfall 0.01 in
Snow Depth Not available.
UV 0 out of 16
Pollen 5.90 out of 12
Air Quality Not available.
Flu Activity Sporadic
METAR KMUO 250558Z AUTO 11003KT 10SM SCT085 BKN110 11/04 A2984 RMK AO2 SLP097 T01070043 10167 20107

More Conditions Fewer Conditions

Pressure 29.82 in
Visibility 10.0 miles
Clouds Scattered Clouds 8500 ft
Mostly Cloudy 11000 ft
Dew Point 40 °F
Humidity 65%
Rainfall 0.01 in
Snow Depth Not available.
UV 0 out of 16
Pollen 5.90 out of 12
Air Quality Not available.
Flu Activity Sporadic
METAR KMUO 250558Z AUTO 11003KT 10SM SCT085 BKN110 11/04 A2984 RMK AO2 SLP097 T01070043 10167 20107

More Conditions Fewer Conditions

10-Day Weather Forecast

Almanac

Astronomy

Apr. 25, 2014 Rise Set
Actual Time 6:52 AM MDT 8:43 PM MDT
Civil Twilight 6:22 AM MDT 9:13 PM MDT
Nautical Twilight 5:45 AM MDT 9:50 PM MDT
Astronomical Twilight 5:05 AM MDT 10:30 PM MDT
Moon 4:49 AM MDT 5:05 PM MDT
Length of Visible Light 14h 51m
Length of Day
13h 50m
Tomorrow will be 2m 36s longer.
Waning Crescent, 19% of the Moon is Illuminated
Today
Waning Crescent
Apr 29
New
May 6
First Quarter
May 14
Full
May 21
Last Quarter

Community

  • Deer in evening light
    Deer in evening light
  • Critter
    Critter
  • Jone Runs Falls
    Jone Runs Falls
  • Easter in Shenandoah National Park
    Easter in Shenandoah National Park
  • Sunset at Apalachicola Bay, Florida
    Sunset at Apalachicola Bay, Florida

WunderPhotos

Upload Photos

1,704,870 photos uploaded!

WunderBlogs® & News

Nearby

Snow Depth

Station Depth Elevation
Fish Creek 49 in 7900 ft
Rock Springs 0 in 5550 ft
Lake Creek R.S. 0 in 5200 ft
Blue Mountain Spring 11 in 5900 ft
Starr Ridge 0 in 5300 ft

Coastal Water Temperatures

Place Temperature
No Stations Reporting

Earthquake Activity

City Distance Mag. Time & Date
Denio Junction, Nevada 91 miles 2.9 8:39 AM MDT
2014-04-20
Cascade, Idaho 142 miles 2.5 8:56 AM MDT
2014-04-19
Cascade, Idaho 142 miles 2.5 8:56 AM MDT
2014-04-19
Minimum magnitude displayed is 2.5.

Nearby Weather Stations

Station Location Temp. Windchill Dew Point Humidity Wind Precip. Elev Updated Type
RAWS GRASSY MOUNTAIN OR, Jordan Valley, OR 44 °F 44 °F 35 °F 70% ENE  at  2 mph 0.00 in / hr 4560 ft 11:24 PM MDT MADIS

Show More Stations Show Fewer Stations

What do you think?

We're not finished. Please let us know what you like, what you don't like, and what you are still missing.